createdAt,value
2023-03-24T00:00:00.230Z,13.20
2023-03-24T00:03:48.903Z,12.70
2023-03-24T00:07:16.362Z,12.50
2023-03-24T00:10:49.970Z,12.90
2023-03-24T00:17:41.499Z,12.20
2023-03-24T00:21:11.874Z,11.60
2023-03-24T00:24:39.027Z,10.90
2023-03-24T00:28:07.935Z,9.90
2023-03-24T00:31:40.553Z,11.10
2023-03-24T00:35:09.239Z,11.30
2023-03-24T00:38:36.513Z,11.90
2023-03-24T00:42:04.929Z,11.30
2023-03-24T00:45:34.927Z,13.10
2023-03-24T00:49:06.294Z,16.40
2023-03-24T00:52:34.429Z,15.10
2023-03-24T00:56:02.202Z,13.90
2023-03-24T00:59:29.868Z,14.00
2023-03-24T01:02:58.617Z,13.10
2023-03-24T01:06:25.433Z,12.50
2023-03-24T01:09:57.704Z,9.80
2023-03-24T01:13:26.216Z,9.40
2023-03-24T01:16:53.512Z,9.00
2023-03-24T01:20:20.765Z,8.40
2023-03-24T01:23:47.934Z,8.90
2023-03-24T01:27:14.710Z,8.40
2023-03-24T01:30:42.952Z,7.80
2023-03-24T01:34:09.789Z,7.80
2023-03-24T01:37:36.448Z,8.40
2023-03-24T01:41:03.091Z,10.20
2023-03-24T01:44:34.948Z,10.00
2023-03-24T01:48:02.050Z,8.80
2023-03-24T01:51:35.704Z,9.60
2023-03-24T01:55:08.233Z,9.80
2023-03-24T01:58:37.210Z,9.30
2023-03-24T02:02:28.893Z,9.30
2023-03-24T02:05:58.958Z,8.90
2023-03-24T02:09:25.595Z,8.70
2023-03-24T02:12:53.302Z,7.30
2023-03-24T02:16:34.894Z,7.60
2023-03-24T02:20:37.302Z,6.40
2023-03-24T02:24:37.013Z,6.70
2023-03-24T02:28:20.896Z,7.50
2023-03-24T02:32:11.065Z,6.10
2023-03-24T02:36:06.373Z,6.80
2023-03-24T02:39:53.274Z,5.90
2023-03-24T02:43:34.557Z,6.20
2023-03-24T02:47:06.820Z,7.90
2023-03-24T02:50:43.235Z,6.30
2023-03-24T02:54:15.489Z,6.80
2023-03-24T02:57:45.361Z,7.60
2023-03-24T03:01:20.864Z,8.10
2023-03-24T03:05:20.165Z,7.40
2023-03-24T03:08:49.341Z,7.80
2023-03-24T03:12:20.066Z,7.60
2023-03-24T03:15:51.380Z,8.50
2023-03-24T03:19:22.231Z,7.80
2023-03-24T03:22:52.641Z,8.40
2023-03-24T03:26:24.380Z,8.70
2023-03-24T03:29:55.285Z,8.50
2023-03-24T03:33:27.368Z,9.10
2023-03-24T03:37:01.145Z,10.10
2023-03-24T03:40:32.887Z,10.70
2023-03-24T03:44:05.664Z,10.20
2023-03-24T03:47:33.804Z,11.30
2023-03-24T03:51:12.843Z,11.30
2023-03-24T03:54:45.137Z,11.00
2023-03-24T03:58:12.660Z,10.40
2023-03-24T04:01:44.688Z,10.80
2023-03-24T04:05:31.949Z,10.20
2023-03-24T04:09:18.088Z,10.60
2023-03-24T04:13:08.409Z,10.40
2023-03-24T04:17:06.274Z,9.70
2023-03-24T04:20:48.245Z,9.90
2023-03-24T04:24:27.628Z,10.60
2023-03-24T04:28:02.433Z,9.70
2023-03-24T04:31:34.486Z,10.50
2023-03-24T04:35:07.310Z,10.40
2023-03-24T04:38:57.580Z,9.70
2023-03-24T04:42:38.722Z,10.40
2023-03-24T04:46:09.118Z,10.90
2023-03-24T04:50:01.385Z,10.80
2023-03-24T04:53:30.200Z,10.40
2023-03-24T04:56:59.366Z,10.60
2023-03-24T05:00:33.820Z,10.40
2023-03-24T05:04:01.411Z,11.20
2023-03-24T05:07:28.748Z,10.80
2023-03-24T05:10:58.969Z,9.90
2023-03-24T05:14:26.697Z,9.50
2023-03-24T05:17:53.986Z,10.10
2023-03-24T05:21:23.471Z,9.80
2023-03-24T05:24:50.472Z,9.60
2023-03-24T05:28:17.362Z,10.00
2023-03-24T05:31:45.398Z,10.00
2023-03-24T05:35:21.026Z,9.20
2023-03-24T05:38:49.236Z,10.00
2023-03-24T05:42:17.314Z,9.80
2023-03-24T05:45:45.455Z,10.60
2023-03-24T05:49:18.940Z,9.90
2023-03-24T05:52:48.678Z,10.60
2023-03-24T05:56:31.611Z,10.30
2023-03-24T06:00:01.190Z,10.80
2023-03-24T06:03:51.563Z,11.00
2023-03-24T06:07:19.324Z,12.40
2023-03-24T06:10:46.934Z,12.30
2023-03-24T06:14:13.895Z,11.30
2023-03-24T06:17:55.011Z,11.20
2023-03-24T06:21:32.563Z,11.70
2023-03-24T06:25:05.148Z,11.00
2023-03-24T06:28:34.712Z,10.70
2023-03-24T06:35:38.883Z,9.50
2023-03-24T06:39:09.666Z,9.90
2023-03-24T06:42:36.909Z,9.80
2023-03-24T06:46:03.856Z,9.40
2023-03-24T06:49:30.471Z,9.40
2023-03-24T06:52:57.052Z,9.20
2023-03-24T06:56:25.113Z,9.10
2023-03-24T06:59:55.827Z,9.20
2023-03-24T07:03:25.329Z,9.10
2023-03-24T07:07:57.082Z,8.70
2023-03-24T07:11:26.132Z,8.70
2023-03-24T07:14:56.082Z,8.40
2023-03-24T07:18:23.459Z,9.70
2023-03-24T07:21:56.609Z,9.70
2023-03-24T07:25:34.587Z,9.30
2023-03-24T07:29:24.419Z,9.50
2023-03-24T07:33:15.704Z,11.80
2023-03-24T07:36:44.794Z,13.90
2023-03-24T07:40:22.881Z,10.30
2023-03-24T07:43:50.297Z,8.80
2023-03-24T07:47:24.989Z,8.50
2023-03-24T07:50:53.630Z,7.20
2023-03-24T07:54:49.451Z,8.00
2023-03-24T07:58:34.056Z,8.80
2023-03-24T08:02:22.471Z,9.50
2023-03-24T08:06:22.026Z,9.20
2023-03-24T08:09:55.955Z,8.40
2023-03-24T08:13:22.800Z,9.10
2023-03-24T08:16:50.784Z,8.40
2023-03-24T08:20:19.501Z,9.00
2023-03-24T08:23:46.102Z,9.00
2023-03-24T08:27:13.115Z,8.30
2023-03-24T08:30:46.483Z,9.00
2023-03-24T08:34:14.449Z,9.30
2023-03-24T08:37:42.615Z,8.90
2023-03-24T08:41:10.094Z,8.60
2023-03-24T08:44:37.717Z,8.30
2023-03-24T08:48:07.273Z,7.50
2023-03-24T08:51:35.002Z,7.70
2023-03-24T08:55:02.470Z,8.10
2023-03-24T08:58:32.800Z,7.50
2023-03-24T09:01:59.257Z,7.50
2023-03-24T09:05:37.067Z,7.20
2023-03-24T09:09:10.208Z,7.00
2023-03-24T09:12:37.176Z,7.10
2023-03-24T09:16:05.107Z,7.80
2023-03-24T09:19:34.358Z,7.30
2023-03-24T09:23:01.728Z,6.70
2023-03-24T09:26:28.622Z,6.80
2023-03-24T09:29:55.740Z,6.40
2023-03-24T09:33:25.081Z,5.50
2023-03-24T09:36:52.319Z,5.70
2023-03-24T09:40:23.294Z,5.40
2023-03-24T09:43:58.429Z,5.20
2023-03-24T09:47:31.864Z,4.80
2023-03-24T09:51:02.536Z,5.10
2023-03-24T09:54:38.428Z,5.20
2023-03-24T09:58:09.433Z,5.10
2023-03-24T10:01:40.324Z,5.00
2023-03-24T10:05:16.762Z,4.10
2023-03-24T10:08:50.303Z,4.00
2023-03-24T10:12:31.418Z,4.20
2023-03-24T10:16:08.019Z,3.70
2023-03-24T10:19:45.585Z,4.10
2023-03-24T10:23:26.400Z,3.90
2023-03-24T10:27:03.779Z,4.10
2023-03-24T10:30:34.598Z,4.00
2023-03-24T10:34:02.487Z,4.30
2023-03-24T10:37:32.291Z,4.10
2023-03-24T10:41:00.054Z,4.00
2023-03-24T10:44:27.274Z,3.70
2023-03-24T10:47:55.080Z,3.40
2023-03-24T10:51:24.539Z,2.90
2023-03-24T10:54:59.551Z,3.30
2023-03-24T10:58:37.891Z,3.00
2023-03-24T11:02:17.761Z,3.20
2023-03-24T11:05:45.097Z,2.80
2023-03-24T11:09:18.931Z,3.20
2023-03-24T11:13:02.649Z,3.20
2023-03-24T11:16:37.216Z,3.30
2023-03-24T11:20:06.420Z,3.00
2023-03-24T11:23:36.115Z,3.30
2023-03-24T11:27:04.308Z,2.70
2023-03-24T11:30:35.892Z,3.20
2023-03-24T11:34:09.261Z,3.00
2023-03-24T11:41:06.137Z,3.40
2023-03-24T11:44:43.185Z,3.70
2023-03-24T11:48:21.201Z,4.90
2023-03-24T11:51:53.158Z,3.60
2023-03-24T11:55:25.761Z,3.00
2023-03-24T11:58:56.962Z,3.90
2023-03-24T12:02:39.343Z,3.90
2023-03-24T12:06:15.720Z,3.50
2023-03-24T12:09:48.660Z,3.70
2023-03-24T12:13:31.803Z,3.90
2023-03-24T12:17:06.718Z,4.50
2023-03-24T12:20:39.126Z,4.30
2023-03-24T12:24:17.611Z,4.10
2023-03-24T12:27:54.290Z,4.80
2023-03-24T12:31:42.063Z,4.90
2023-03-24T12:35:38.951Z,4.20
2023-03-24T12:39:13.161Z,4.20
2023-03-24T12:46:15.996Z,4.40
2023-03-24T12:50:05.899Z,4.40
2023-03-24T12:53:43.633Z,4.80
2023-03-24T12:57:15.735Z,4.70
2023-03-24T13:00:47.756Z,4.20
2023-03-24T13:04:21.249Z,4.30
2023-03-24T13:07:54.349Z,4.10
2023-03-24T13:11:33.250Z,4.80
2023-03-24T13:15:15.209Z,4.90
2023-03-24T13:18:45.381Z,5.00
2023-03-24T13:22:18.127Z,5.10
2023-03-24T13:25:52.945Z,5.50
2023-03-24T13:29:55.845Z,5.40
2023-03-24T13:33:26.799Z,5.10
2023-03-24T13:36:57.649Z,4.80
2023-03-24T13:40:28.073Z,4.70
2023-03-24T13:44:02.343Z,4.80
2023-03-24T13:47:32.052Z,3.90
2023-03-24T13:51:01.948Z,4.00
2023-03-24T13:54:30.993Z,4.50
2023-03-24T13:58:02.000Z,4.50
2023-03-24T14:01:41.100Z,4.00
2023-03-24T14:05:10.217Z,4.50
2023-03-24T14:08:56.083Z,7.60
2023-03-24T14:12:27.396Z,5.60
2023-03-24T14:15:56.725Z,4.80
2023-03-24T14:19:31.404Z,7.40
2023-03-24T14:22:58.606Z,6.30
2023-03-24T14:26:36.944Z,7.20
2023-03-24T14:30:13.679Z,4.90
2023-03-24T14:33:41.667Z,4.80
2023-03-24T14:37:11.367Z,3.90
2023-03-24T14:40:40.350Z,3.50
2023-03-24T14:44:10.491Z,3.60
2023-03-24T14:47:39.932Z,4.10
2023-03-24T14:51:18.286Z,3.80
2023-03-24T14:54:53.697Z,4.80
2023-03-24T14:58:28.271Z,3.20
2023-03-24T15:02:00.892Z,3.90
2023-03-24T15:05:32.230Z,3.50
2023-03-24T15:09:01.436Z,3.50
2023-03-24T15:12:28.531Z,3.20
2023-03-24T15:15:58.818Z,3.20
2023-03-24T15:19:28.991Z,3.30
2023-03-24T15:22:56.434Z,3.50
2023-03-24T15:26:24.704Z,3.00
2023-03-24T15:29:59.250Z,3.00
2023-03-24T15:33:31.280Z,3.20
2023-03-24T15:37:00.017Z,2.80
2023-03-24T15:40:39.316Z,3.00
2023-03-24T15:44:11.331Z,3.00
2023-03-24T15:47:43.287Z,3.40
2023-03-24T15:51:12.758Z,3.50
2023-03-24T15:54:43.126Z,4.30
2023-03-24T15:58:27.199Z,5.00
2023-03-24T16:01:54.555Z,4.50
2023-03-24T16:05:26.172Z,4.10
2023-03-24T16:08:52.782Z,4.10
2023-03-24T16:12:19.737Z,4.50
2023-03-24T16:15:49.867Z,5.80
2023-03-24T16:19:16.787Z,5.10
2023-03-24T16:22:43.891Z,4.90
2023-03-24T16:26:13.918Z,5.80
2023-03-24T16:29:40.899Z,6.70
2023-03-24T16:33:08.821Z,7.90
2023-03-24T16:36:36.439Z,9.00
2023-03-24T16:40:03.898Z,14.40
2023-03-24T16:43:33.570Z,11.70
2023-03-24T16:47:01.112Z,9.90
2023-03-24T16:50:33.695Z,8.70
2023-03-24T16:54:00.915Z,8.80
2023-03-24T16:57:28.049Z,6.10
2023-03-24T17:00:59.042Z,5.80
2023-03-24T17:04:27.695Z,6.10
2023-03-24T17:07:55.813Z,7.20
2023-03-24T17:11:30.599Z,7.20
2023-03-24T17:14:57.296Z,7.10
2023-03-24T17:18:25.075Z,3.10
2023-03-24T17:21:58.101Z,2.10
2023-03-24T17:25:29.480Z,2.30
2023-03-24T17:28:56.928Z,3.20
2023-03-24T17:32:29.925Z,2.60
2023-03-24T17:35:57.059Z,2.90
2023-03-24T17:39:24.948Z,3.20
2023-03-24T17:42:54.750Z,2.60
2023-03-24T17:46:22.566Z,7.80
2023-03-24T17:49:49.518Z,4.70
2023-03-24T17:53:17.783Z,5.00
2023-03-24T17:56:44.902Z,4.50
2023-03-24T18:00:15.162Z,4.10
2023-03-24T18:03:45.071Z,4.10
2023-03-24T18:07:12.213Z,3.80
2023-03-24T18:10:39.918Z,5.10
2023-03-24T18:14:09.412Z,4.50
2023-03-24T18:17:37.811Z,3.70
2023-03-24T18:21:05.169Z,3.50
2023-03-24T18:24:32.499Z,6.70
2023-03-24T18:27:59.089Z,6.70
2023-03-24T18:31:26.596Z,4.90
2023-03-24T18:34:55.290Z,4.80
2023-03-24T18:38:22.894Z,4.60
2023-03-24T18:41:53.655Z,9.60
2023-03-24T18:45:21.240Z,14.10
2023-03-24T18:48:49.246Z,12.90
2023-03-24T18:52:18.425Z,11.40
2023-03-24T18:55:51.992Z,5.80
2023-03-24T18:59:20.351Z,9.90
2023-03-24T19:02:49.246Z,14.00
2023-03-24T19:06:17.786Z,26.50
2023-03-24T19:09:46.223Z,20.80
2023-03-24T19:13:14.922Z,17.30
2023-03-24T19:16:42.032Z,18.60
2023-03-24T19:20:12.106Z,20.00
2023-03-24T19:23:41.989Z,15.30
2023-03-24T19:27:08.776Z,12.10
2023-03-24T19:30:38.824Z,9.30
2023-03-24T19:34:06.396Z,9.70
2023-03-24T19:37:34.649Z,10.30
2023-03-24T19:41:08.087Z,16.50
2023-03-24T19:44:35.043Z,13.80
2023-03-24T19:48:01.844Z,12.50
2023-03-24T19:51:29.934Z,14.00
2023-03-24T19:54:56.818Z,12.50
2023-03-24T19:58:25.400Z,11.10
2023-03-24T20:01:52.343Z,9.30
2023-03-24T20:05:19.634Z,9.40
2023-03-24T20:08:47.525Z,9.30
2023-03-24T20:12:14.278Z,8.70
2023-03-24T20:15:41.152Z,7.50
2023-03-24T20:19:08.221Z,7.80
2023-03-24T20:22:36.903Z,6.90
2023-03-24T20:26:04.348Z,7.40
2023-03-24T20:29:31.954Z,7.20
2023-03-24T20:32:59.901Z,7.80
2023-03-24T20:36:27.061Z,7.80
2023-03-24T20:39:55.289Z,7.70
2023-03-24T20:43:21.775Z,9.00
2023-03-24T20:46:49.244Z,9.90
2023-03-24T20:50:16.348Z,9.90
2023-03-24T20:53:45.121Z,11.00
2023-03-24T20:57:13.276Z,12.40
2023-03-24T21:00:42.232Z,12.60
2023-03-24T21:04:10.991Z,13.30
2023-03-24T21:07:44.098Z,11.70
2023-03-24T21:11:12.949Z,11.00
2023-03-24T21:14:41.650Z,10.80
2023-03-24T21:18:09.896Z,12.00
2023-03-24T21:21:38.429Z,10.40
2023-03-24T21:25:06.786Z,9.70
2023-03-24T21:28:34.328Z,10.10
2023-03-24T21:32:01.402Z,11.80
2023-03-24T21:35:29.004Z,10.30
2023-03-24T21:38:56.785Z,8.40
2023-03-24T21:42:30.977Z,8.90
2023-03-24T21:45:59.494Z,8.50
2023-03-24T21:49:30.487Z,8.80
2023-03-24T21:52:59.469Z,9.30
2023-03-24T21:56:33.127Z,9.60
2023-03-24T22:00:13.270Z,9.30
2023-03-24T22:03:40.866Z,9.50
2023-03-24T22:07:16.002Z,10.20
2023-03-24T22:10:46.385Z,10.70
2023-03-24T22:14:16.922Z,9.60
2023-03-24T22:17:45.423Z,10.10
2023-03-24T22:21:17.286Z,10.00
2023-03-24T22:24:44.911Z,9.50
2023-03-24T22:28:12.151Z,7.90
2023-03-24T22:31:43.908Z,8.20
2023-03-24T22:35:14.540Z,7.00
2023-03-24T22:38:53.632Z,7.60
2023-03-24T22:42:31.935Z,7.80
2023-03-24T22:46:20.351Z,6.90
2023-03-24T22:50:00.108Z,8.60
2023-03-24T22:53:28.232Z,8.50
2023-03-24T22:56:55.653Z,8.70
2023-03-24T23:00:31.065Z,8.20
2023-03-24T23:03:59.560Z,9.00
2023-03-24T23:07:33.682Z,9.10
2023-03-24T23:11:06.928Z,10.20
2023-03-24T23:14:34.769Z,12.00
2023-03-24T23:18:07.336Z,10.90
2023-03-24T23:21:35.626Z,12.50
2023-03-24T23:25:04.262Z,13.30
2023-03-24T23:28:32.513Z,12.30
2023-03-24T23:32:00.033Z,11.00
2023-03-24T23:35:26.980Z,10.20
2023-03-24T23:38:55.944Z,10.10
2023-03-24T23:42:25.582Z,8.20
2023-03-24T23:45:58.032Z,7.50
2023-03-24T23:49:25.098Z,7.00
2023-03-24T23:52:52.266Z,7.70
2023-03-24T23:56:22.244Z,7.40
2023-03-24T23:59:53.211Z,7.30
